createdAt,value
2018-12-23T00:01:01.406Z,24.27
2018-12-23T00:03:28.959Z,11.77
2018-12-23T00:05:56.519Z,22.73
2018-12-23T00:08:24.074Z,21.03
2018-12-23T00:10:51.644Z,18.53
2018-12-23T00:13:19.198Z,11.17
2018-12-23T00:15:46.754Z,20.97
2018-12-23T00:18:14.311Z,14.77
2018-12-23T00:20:41.880Z,15.73
2018-12-23T00:23:09.443Z,26.07
2018-12-23T00:25:36.996Z,19.10
2018-12-23T00:28:04.556Z,22.33
2018-12-23T00:30:32.124Z,26.70
2018-12-23T00:32:59.676Z,16.87
2018-12-23T00:35:27.232Z,13.67
2018-12-23T00:37:54.789Z,18.50
2018-12-23T00:40:22.350Z,21.63
2018-12-23T00:42:51.450Z,23.20
2018-12-23T00:45:19.006Z,22.57
2018-12-23T00:47:46.559Z,27.33
2018-12-23T00:50:14.119Z,23.97
2018-12-23T00:52:41.670Z,25.47
2018-12-23T00:55:09.220Z,27.77
2018-12-23T00:57:36.776Z,25.53
2018-12-23T01:00:04.509Z,26.60
2018-12-23T01:02:32.055Z,20.20
2018-12-23T01:04:59.612Z,29.60
2018-12-23T01:07:27.172Z,26.77
2018-12-23T01:09:54.723Z,23.50
2018-12-23T01:12:22.304Z,30.13
2018-12-23T01:14:49.867Z,22.60
2018-12-23T01:17:17.419Z,30.90
2018-12-23T01:19:44.980Z,29.73
2018-12-23T01:22:12.535Z,26.70
2018-12-23T01:24:41.023Z,32.37
2018-12-23T01:27:08.579Z,28.57
2018-12-23T01:29:36.148Z,21.93
2018-12-23T01:32:03.708Z,18.67
2018-12-23T01:34:37.062Z,24.43
2018-12-23T01:37:01.348Z,33.37
2018-12-23T01:39:31.468Z,24.43
2018-12-23T01:41:59.017Z,25.30
2018-12-23T01:44:27.032Z,18.07
2018-12-23T01:46:54.611Z,30.93
2018-12-23T01:49:22.175Z,30.80
2018-12-23T01:51:49.736Z,33.27
2018-12-23T01:54:17.283Z,27.23
2018-12-23T01:56:44.836Z,21.40
2018-12-23T01:59:12.383Z,26.13
2018-12-23T02:01:39.928Z,24.60
2018-12-23T02:04:07.476Z,33.17
2018-12-23T02:06:35.032Z,24.93
2018-12-23T02:09:02.584Z,33.17
2018-12-23T02:11:30.144Z,25.37
2018-12-23T02:13:57.805Z,24.93
2018-12-23T02:16:25.471Z,30.40
2018-12-23T02:18:53.539Z,16.20
2018-12-23T02:21:21.084Z,27.20
2018-12-23T02:23:48.644Z,23.80
2018-12-23T02:26:16.204Z,28.30
2018-12-23T02:28:43.754Z,18.40
2018-12-23T02:31:11.309Z,18.87
2018-12-23T02:33:38.865Z,28.97
2018-12-23T02:36:07.144Z,38.30
2018-12-23T02:38:34.699Z,24.50
2018-12-23T02:41:02.252Z,18.63
2018-12-23T02:43:30.531Z,17.47
2018-12-23T02:45:59.076Z,28.43
2018-12-23T02:48:26.642Z,26.77
2018-12-23T02:50:54.203Z,23.03
2018-12-23T02:53:21.768Z,21.87
2018-12-23T02:55:49.637Z,23.90
2018-12-23T02:58:17.191Z,30.87
2018-12-23T03:00:44.744Z,21.17
2018-12-23T03:03:12.307Z,23.77
2018-12-23T03:05:39.865Z,19.67
2018-12-23T03:08:07.419Z,26.80
2018-12-23T03:10:35.090Z,21.43
2018-12-23T03:13:02.654Z,27.50
2018-12-23T03:15:30.209Z,31.23
2018-12-23T03:17:57.775Z,22.30
2018-12-23T03:20:25.336Z,23.53
2018-12-23T03:22:52.891Z,25.93
2018-12-23T03:25:20.872Z,20.23
2018-12-23T03:27:48.433Z,21.60
2018-12-23T03:30:15.981Z,24.00
2018-12-23T03:32:43.558Z,28.60
2018-12-23T03:35:11.217Z,25.63
2018-12-23T03:37:38.772Z,31.07
2018-12-23T03:40:06.334Z,24.30
2018-12-23T03:42:33.892Z,28.70
2018-12-23T03:45:02.068Z,27.40
2018-12-23T03:47:29.628Z,29.83
2018-12-23T03:49:57.188Z,24.57
2018-12-23T03:52:24.753Z,26.23
2018-12-23T03:54:52.450Z,26.03
2018-12-23T03:57:20.008Z,21.73
2018-12-23T03:59:47.561Z,20.63
2018-12-23T04:02:15.127Z,22.00
2018-12-23T04:04:42.684Z,27.27
2018-12-23T04:07:10.243Z,18.10
2018-12-23T04:09:37.816Z,23.10
2018-12-23T04:12:05.367Z,18.63
2018-12-23T04:14:32.916Z,20.87
2018-12-23T04:17:00.481Z,23.47
2018-12-23T04:19:28.044Z,27.20
2018-12-23T04:21:55.595Z,27.53
2018-12-23T04:24:23.156Z,19.40
2018-12-23T04:26:51.140Z,21.10
2018-12-23T04:29:18.697Z,19.77
2018-12-23T04:31:46.248Z,24.63
2018-12-23T04:34:13.804Z,31.40
2018-12-23T04:36:41.362Z,26.33
2018-12-23T04:39:08.941Z,27.23
2018-12-23T04:41:36.494Z,20.90
2018-12-23T04:44:04.053Z,21.90
2018-12-23T04:46:31.609Z,19.87
2018-12-23T04:48:59.159Z,20.57
2018-12-23T04:51:26.709Z,19.63
2018-12-23T04:53:55.278Z,26.37
2018-12-23T04:56:22.844Z,22.67
2018-12-23T04:58:51.122Z,22.47
2018-12-23T05:01:18.938Z,30.80
2018-12-23T05:03:46.492Z,29.40
2018-12-23T05:06:14.043Z,22.73
2018-12-23T05:08:41.600Z,30.27
2018-12-23T05:11:09.152Z,31.90
2018-12-23T05:13:36.706Z,29.70
2018-12-23T05:16:04.525Z,27.90
2018-12-23T05:18:32.075Z,29.37
2018-12-23T05:20:59.628Z,20.93
2018-12-23T05:23:27.176Z,25.67
2018-12-23T05:25:54.742Z,24.03
2018-12-23T05:28:22.299Z,23.50
2018-12-23T05:30:50.412Z,24.33
2018-12-23T05:33:17.968Z,18.37
2018-12-23T05:35:45.528Z,22.03
2018-12-23T05:38:13.091Z,24.33
2018-12-23T05:40:40.647Z,31.63
2018-12-23T05:43:08.209Z,23.20
2018-12-23T05:45:36.123Z,29.20
2018-12-23T05:48:03.675Z,28.47
2018-12-23T05:50:31.232Z,24.90
2018-12-23T05:52:58.815Z,26.33
2018-12-23T05:55:26.348Z,24.80
2018-12-23T05:57:53.897Z,28.67
2018-12-23T06:00:21.748Z,25.70
2018-12-23T06:02:49.302Z,30.80
2018-12-23T06:05:16.862Z,26.70
2018-12-23T06:07:44.624Z,33.93
2018-12-23T06:10:12.182Z,32.57
2018-12-23T06:12:39.731Z,27.13
2018-12-23T06:15:07.290Z,30.63
2018-12-23T06:17:34.847Z,29.90
2018-12-23T06:20:02.407Z,28.80
2018-12-23T06:22:29.959Z,25.00
2018-12-23T06:24:57.519Z,29.20
2018-12-23T06:27:25.072Z,30.40
2018-12-23T06:29:52.744Z,27.57
2018-12-23T06:32:20.304Z,35.60
2018-12-23T06:34:48.534Z,26.30
2018-12-23T06:37:16.103Z,37.60
2018-12-23T06:39:43.655Z,28.47
2018-12-23T06:42:11.207Z,21.27
2018-12-23T06:44:38.867Z,28.53
2018-12-23T06:47:06.448Z,30.63
2018-12-23T06:49:34.004Z,31.73
2018-12-23T06:52:01.875Z,30.53
2018-12-23T06:54:29.436Z,39.40
2018-12-23T06:56:57.300Z,29.27
2018-12-23T06:59:24.881Z,29.43
2018-12-23T07:01:52.432Z,30.00
2018-12-23T07:04:19.984Z,23.53
2018-12-23T07:06:47.868Z,32.30
2018-12-23T07:09:15.421Z,33.23
2018-12-23T07:11:42.972Z,26.30
2018-12-23T07:14:10.528Z,29.12
2018-12-23T07:16:38.086Z,24.63
2018-12-23T07:19:05.639Z,23.23
2018-12-23T07:21:33.195Z,29.57
2018-12-23T07:24:00.747Z,31.70
2018-12-23T07:26:28.304Z,29.83
2018-12-23T07:28:55.861Z,32.23
2018-12-23T07:31:23.423Z,20.83
2018-12-23T07:33:50.975Z,30.67
2018-12-23T07:36:18.530Z,22.13
2018-12-23T07:38:46.081Z,32.97
2018-12-23T07:41:13.630Z,30.57
2018-12-23T07:43:41.196Z,26.70
2018-12-23T07:46:08.757Z,31.13
2018-12-23T07:48:36.315Z,24.87
2018-12-23T07:51:03.884Z,29.97
2018-12-23T07:53:31.438Z,30.47
2018-12-23T07:55:59.462Z,40.17
2018-12-23T07:58:27.364Z,33.77
2018-12-23T08:00:54.919Z,32.50
2018-12-23T08:03:22.472Z,38.57
2018-12-23T08:05:50.031Z,30.60
2018-12-23T08:08:17.578Z,43.20
2018-12-23T08:10:45.133Z,36.33
2018-12-23T08:13:12.685Z,34.43
2018-12-23T08:15:40.242Z,41.43
2018-12-23T08:18:07.800Z,37.90
2018-12-23T08:20:35.354Z,34.03
2018-12-23T08:23:02.904Z,32.77
2018-12-23T08:25:35.602Z,32.43
2018-12-23T08:28:00.036Z,37.90
2018-12-23T08:30:27.599Z,34.03
2018-12-23T08:32:55.153Z,38.93
2018-12-23T08:35:23.021Z,37.50
2018-12-23T08:37:50.592Z,36.57
2018-12-23T08:40:18.140Z,27.33
2018-12-23T08:42:45.700Z,31.53
2018-12-23T08:45:13.257Z,33.03
2018-12-23T08:47:40.816Z,34.43
2018-12-23T08:50:08.900Z,28.73
2018-12-23T08:52:36.455Z,29.30
2018-12-23T08:55:04.024Z,37.23
2018-12-23T08:57:31.592Z,31.73
2018-12-23T08:59:59.140Z,36.77
2018-12-23T09:02:26.696Z,32.10
2018-12-23T09:04:54.252Z,36.70
2018-12-23T09:07:21.819Z,35.90
2018-12-23T09:09:49.364Z,40.27
2018-12-23T09:12:16.910Z,39.87
2018-12-23T09:14:44.464Z,44.93
2018-12-23T09:17:12.119Z,33.13
2018-12-23T09:19:39.677Z,37.30
2018-12-23T09:22:07.245Z,40.63
2018-12-23T09:24:34.804Z,29.50
2018-12-23T09:27:02.363Z,36.83
2018-12-23T09:29:30.489Z,38.63
2018-12-23T09:31:58.441Z,34.57
2018-12-23T09:34:25.997Z,44.97
2018-12-23T09:36:53.552Z,39.73
2018-12-23T09:39:21.100Z,44.17
2018-12-23T09:41:48.662Z,44.87
2018-12-23T09:44:16.226Z,49.03
2018-12-23T09:46:44.324Z,42.93
2018-12-23T09:49:11.872Z,42.47
2018-12-23T09:51:39.424Z,44.93
2018-12-23T09:54:06.975Z,36.93
2018-12-23T09:56:34.547Z,40.60
2018-12-23T09:59:02.151Z,39.93
2018-12-23T10:01:29.707Z,42.67
2018-12-23T10:03:57.542Z,47.10
2018-12-23T10:06:25.110Z,34.60
2018-12-23T10:08:52.669Z,45.17
2018-12-23T10:11:20.226Z,50.43
2018-12-23T10:13:47.781Z,46.27
2018-12-23T10:16:15.345Z,49.87
2018-12-23T10:18:43.271Z,48.17
2018-12-23T10:21:10.891Z,50.10
2018-12-23T10:23:38.458Z,55.43
2018-12-23T10:26:06.018Z,53.83
2018-12-23T10:28:33.574Z,56.20
2018-12-23T10:31:01.128Z,49.90
2018-12-23T10:33:28.687Z,61.60
2018-12-23T10:35:56.246Z,66.27
2018-12-23T10:38:23.815Z,47.00
2018-12-23T10:40:51.375Z,48.13
2018-12-23T10:43:18.925Z,51.93
2018-12-23T10:45:46.489Z,52.50
2018-12-23T10:48:14.045Z,40.33
2018-12-23T10:50:41.595Z,44.03
2018-12-23T10:53:09.166Z,46.07
2018-12-23T10:55:36.724Z,44.63
2018-12-23T10:58:04.950Z,43.50
2018-12-23T11:00:32.517Z,38.27
2018-12-23T11:03:00.069Z,38.77
2018-12-23T11:05:27.628Z,36.97
2018-12-23T11:07:55.189Z,35.73
2018-12-23T11:10:22.764Z,37.90
2018-12-23T11:12:50.336Z,46.87
2018-12-23T11:15:17.897Z,41.50
2018-12-23T11:17:45.455Z,45.70
2018-12-23T11:20:13.085Z,33.63
2018-12-23T11:22:40.643Z,33.83
2018-12-23T11:25:08.205Z,29.70
2018-12-23T11:27:35.760Z,37.03
2018-12-23T11:30:04.318Z,28.23
2018-12-23T11:32:31.998Z,35.57
2018-12-23T11:34:59.636Z,31.90
2018-12-23T11:37:27.182Z,35.77
2018-12-23T11:39:54.756Z,34.37
2018-12-23T11:42:22.319Z,31.10
2018-12-23T11:44:49.872Z,28.53
2018-12-23T11:47:17.427Z,33.00
2018-12-23T11:49:44.990Z,32.63
2018-12-23T11:52:12.546Z,25.60
2018-12-23T11:54:40.100Z,27.70
2018-12-23T11:57:07.644Z,31.67
2018-12-23T11:59:35.191Z,30.13
2018-12-23T12:02:02.801Z,29.97
2018-12-23T12:04:30.377Z,32.73
2018-12-23T12:06:57.935Z,31.80
2018-12-23T12:09:25.491Z,21.50
2018-12-23T12:11:53.920Z,23.60
2018-12-23T12:14:21.469Z,25.50
2018-12-23T12:16:49.027Z,18.23
2018-12-23T12:19:16.606Z,21.67
2018-12-23T12:21:44.165Z,16.17
2018-12-23T12:24:11.731Z,14.50
2018-12-23T12:26:39.277Z,19.77
2018-12-23T12:29:06.836Z,17.50
2018-12-23T12:31:34.388Z,17.00
2018-12-23T12:34:01.943Z,17.40
2018-12-23T12:36:29.500Z,18.53
2018-12-23T12:38:57.058Z,17.13
2018-12-23T12:41:24.620Z,19.17
2018-12-23T12:43:52.163Z,20.80
2018-12-23T12:46:20.025Z,20.27
2018-12-23T12:48:47.579Z,24.53
2018-12-23T12:51:15.137Z,20.47
2018-12-23T12:53:42.799Z,18.23
2018-12-23T12:56:10.357Z,19.87
2018-12-23T12:58:37.916Z,15.40
2018-12-23T13:01:05.472Z,19.50
2018-12-23T13:03:33.036Z,14.77
2018-12-23T13:06:00.600Z,17.07
2018-12-23T13:08:28.735Z,18.17
2018-12-23T13:10:56.289Z,14.07
2018-12-23T13:13:23.925Z,18.00
2018-12-23T13:15:51.816Z,9.83
2018-12-23T13:18:19.367Z,12.57
2018-12-23T13:20:46.927Z,15.97
2018-12-23T13:23:14.503Z,10.03
2018-12-23T13:25:42.062Z,11.70
2018-12-23T13:28:09.612Z,12.40
2018-12-23T13:30:37.163Z,23.33
2018-12-23T13:33:04.711Z,17.20
2018-12-23T13:35:32.267Z,21.07
2018-12-23T13:37:59.872Z,18.53
2018-12-23T13:40:44.289Z,16.60
2018-12-23T13:43:14.688Z,11.43
2018-12-23T13:45:49.874Z,21.07
2018-12-23T13:48:20.213Z,23.10
2018-12-23T13:50:49.756Z,19.67
2018-12-23T13:53:20.200Z,17.70
2018-12-23T13:55:51.519Z,16.87
2018-12-23T13:58:35.948Z,25.20
2018-12-23T14:01:07.172Z,24.70
2018-12-23T14:07:29.334Z,25.60
2018-12-23T20:08:45.697Z,14.80
2018-12-23T21:23:20.271Z,4.03
2018-12-23T21:26:07.626Z,4.73
2018-12-23T21:28:52.698Z,4.03
2018-12-23T21:31:22.572Z,5.07
2018-12-23T21:34:01.499Z,6.43
2018-12-23T21:36:34.035Z,5.13
2018-12-23T21:39:18.877Z,2.57
2018-12-23T21:42:06.829Z,2.43
2018-12-23T21:44:36.861Z,4.70
2018-12-23T21:47:06.734Z,7.83
2018-12-23T21:49:36.612Z,4.07
2018-12-23T21:52:12.229Z,5.70
2018-12-23T21:54:42.102Z,4.10
2018-12-23T21:57:14.945Z,5.07
2018-12-23T21:59:44.853Z,1.30
2018-12-23T22:02:31.445Z,3.13
2018-12-23T22:05:01.749Z,3.80
2018-12-23T22:07:48.549Z,2.10
2018-12-23T22:10:36.718Z,4.10
2018-12-23T22:13:09.514Z,2.73
2018-12-23T22:15:37.766Z,6.33
2018-12-23T22:18:06.438Z,3.37
2018-12-23T22:20:36.069Z,1.67
2018-12-23T22:23:04.285Z,1.93
2018-12-23T22:25:32.585Z,2.83
2018-12-23T22:28:00.833Z,5.00
2018-12-23T22:30:29.082Z,3.70
2018-12-23T22:32:59.303Z,3.93
2018-12-23T22:35:27.256Z,7.13
2018-12-23T22:37:55.497Z,2.45
2018-12-23T22:40:23.782Z,2.63
2018-12-23T22:42:52.032Z,4.33
2018-12-23T22:45:20.278Z,2.13
2018-12-23T22:47:48.547Z,3.27
2018-12-23T22:50:16.795Z,2.97
2018-12-23T22:52:45.055Z,1.47
2018-12-23T22:55:13.317Z,4.80
2018-12-23T22:57:41.878Z,2.77
2018-12-23T23:00:13.228Z,2.30
2018-12-23T23:02:41.513Z,1.23
2018-12-23T23:05:09.762Z,1.83
2018-12-23T23:07:38.001Z,2.00
2018-12-23T23:10:09.221Z,2.37
2018-12-23T23:12:37.465Z,4.20
2018-12-23T23:15:05.716Z,1.80
2018-12-23T23:17:33.986Z,4.80
2018-12-23T23:20:02.239Z,4.47
2018-12-23T23:22:30.482Z,4.57
2018-12-23T23:24:58.760Z,2.47
2018-12-23T23:27:27.034Z,2.87
2018-12-23T23:29:55.278Z,6.90
2018-12-23T23:32:23.810Z,3.30
2018-12-23T23:34:52.063Z,1.80
2018-12-23T23:37:20.309Z,5.40
2018-12-23T23:39:48.589Z,4.70
2018-12-23T23:42:16.830Z,4.37
2018-12-23T23:44:45.093Z,6.28
2018-12-23T23:47:13.937Z,12.63
2018-12-23T23:49:42.185Z,1.77
2018-12-23T23:52:10.437Z,6.60
2018-12-23T23:54:38.724Z,5.03
2018-12-23T23:57:06.971Z,8.17
2018-12-23T23:59:35.213Z,8.87
